createdAt,value
2022-08-03T00:00:41.040Z,5.93
2022-08-03T00:03:08.574Z,7.07
2022-08-03T00:05:37.710Z,8.40
2022-08-03T00:08:05.618Z,6.90
2022-08-03T00:10:34.477Z,9.75
2022-08-03T00:13:01.977Z,8.20
2022-08-03T00:15:31.747Z,9.48
2022-08-03T00:17:59.355Z,7.47
2022-08-03T00:20:27.015Z,7.45
2022-08-03T00:22:54.574Z,13.02
2022-08-03T00:25:22.276Z,7.80
2022-08-03T00:27:50.412Z,10.20
2022-08-03T00:30:18.632Z,11.57
2022-08-03T00:32:47.450Z,11.05
2022-08-03T00:35:36.882Z,8.50
2022-08-03T00:38:02.458Z,8.27
2022-08-03T00:40:30.264Z,7.60
2022-08-03T00:43:02.944Z,6.82
2022-08-03T00:45:33.452Z,8.48
2022-08-03T00:48:01.829Z,6.28
2022-08-03T00:50:31.321Z,8.17
2022-08-03T00:53:00.264Z,7.88
2022-08-03T00:55:28.220Z,6.95
2022-08-03T00:57:56.382Z,7.72
2022-08-03T01:00:26.798Z,8.88
2022-08-03T01:02:54.870Z,5.60
2022-08-03T01:05:22.620Z,7.80
2022-08-03T01:08:29.037Z,7.95
2022-08-03T01:11:15.211Z,6.63
2022-08-03T01:14:01.582Z,6.10
2022-08-03T01:16:51.477Z,6.40
2022-08-03T01:19:31.041Z,7.85
2022-08-03T01:22:19.761Z,6.00
2022-08-03T01:25:03.219Z,8.63
2022-08-03T01:27:55.482Z,8.35
2022-08-03T01:30:28.891Z,6.63
2022-08-03T01:33:03.477Z,6.53
2022-08-03T01:35:45.807Z,8.50
2022-08-03T01:38:23.215Z,6.20
2022-08-03T01:40:54.974Z,9.32
2022-08-03T01:44:27.264Z,7.33
2022-08-03T01:46:17.539Z,5.93
2022-08-03T01:48:47.844Z,6.13
2022-08-03T01:51:20.393Z,7.00
2022-08-03T01:53:50.393Z,7.32
2022-08-03T01:56:20.624Z,8.10
2022-08-03T01:58:51.598Z,6.50
2022-08-03T02:01:21.820Z,6.63
2022-08-03T02:03:59.557Z,9.25
2022-08-03T02:07:01.318Z,7.70
2022-08-03T02:09:21.501Z,6.73
2022-08-03T02:11:51.406Z,8.07
2022-08-03T02:14:20.591Z,6.65
2022-08-03T02:16:51.480Z,7.50
2022-08-03T02:19:19.965Z,7.63
2022-08-03T02:21:56.285Z,9.07
2022-08-03T02:24:30.232Z,7.50
2022-08-03T02:26:59.587Z,6.50
2022-08-03T02:29:39.734Z,7.53
2022-08-03T02:32:17.045Z,8.73
2022-08-03T02:34:49.384Z,6.47
2022-08-03T02:37:20.111Z,7.10
2022-08-03T02:39:49.611Z,8.63
2022-08-03T02:42:21.871Z,10.77
2022-08-03T02:44:53.050Z,6.95
2022-08-03T02:47:21.799Z,6.63
2022-08-03T02:49:52.325Z,9.30
2022-08-03T02:52:27.047Z,6.10
2022-08-03T02:55:00.513Z,7.13
2022-08-03T02:57:31.076Z,6.13
2022-08-03T03:00:00.283Z,9.63
2022-08-03T03:02:29.449Z,8.68
2022-08-03T03:05:53.266Z,7.57
2022-08-03T03:07:51.684Z,7.93
2022-08-03T03:10:23.581Z,11.13
2022-08-03T03:12:55.049Z,12.53
2022-08-03T03:15:27.359Z,9.55
2022-08-03T03:17:55.844Z,8.13
2022-08-03T03:20:29.498Z,10.30
2022-08-03T03:23:02.004Z,10.20
2022-08-03T03:25:33.522Z,8.40
2022-08-03T03:28:02.181Z,9.57
2022-08-03T03:30:30.644Z,7.13
2022-08-03T03:32:59.424Z,7.93
2022-08-03T03:35:28.319Z,7.78
2022-08-03T03:37:55.982Z,7.93
2022-08-03T03:40:24.098Z,8.05
2022-08-03T03:42:52.022Z,6.00
2022-08-03T03:45:21.084Z,7.28
2022-08-03T03:47:48.810Z,8.27
2022-08-03T03:50:18.572Z,8.20
2022-08-03T03:52:46.518Z,8.20
2022-08-03T03:55:18.433Z,7.60
2022-08-03T03:57:46.593Z,6.43
2022-08-03T04:00:15.689Z,8.30
2022-08-03T04:02:43.487Z,6.13
2022-08-03T04:05:29.695Z,6.07
2022-08-03T04:08:20.128Z,6.78
2022-08-03T04:10:59.285Z,5.88
2022-08-03T04:13:38.123Z,6.88
2022-08-03T04:16:08.084Z,6.37
2022-08-03T04:18:42.241Z,7.63
2022-08-03T04:21:13.474Z,8.15
2022-08-03T04:23:45.450Z,6.20
2022-08-03T04:26:15.673Z,8.23
2022-08-03T04:28:46.385Z,6.80
2022-08-03T04:31:16.476Z,7.78
2022-08-03T04:33:46.138Z,6.53
2022-08-03T04:36:18.470Z,8.25
2022-08-03T04:39:07.206Z,9.10
2022-08-03T04:42:08.277Z,9.47
2022-08-03T04:44:28.648Z,7.47
2022-08-03T04:46:58.466Z,9.82
2022-08-03T04:49:26.667Z,10.82
2022-08-03T04:51:54.433Z,8.95
2022-08-03T04:54:21.911Z,8.70
2022-08-03T04:56:49.367Z,9.57
2022-08-03T04:59:18.109Z,9.95
2022-08-03T05:01:45.720Z,8.88
2022-08-03T05:04:13.732Z,11.10
2022-08-03T05:06:47.874Z,10.63
2022-08-03T05:09:25.948Z,12.00
2022-08-03T05:12:04.032Z,15.40
2022-08-03T05:14:31.591Z,12.20
2022-08-03T05:16:59.137Z,12.00
2022-08-03T05:19:26.747Z,9.53
2022-08-03T05:21:54.347Z,10.13
2022-08-03T05:24:22.009Z,11.43
2022-08-03T05:26:49.632Z,12.68
2022-08-03T05:29:17.158Z,10.85
2022-08-03T05:31:44.657Z,12.43
2022-08-03T05:34:12.234Z,12.15
2022-08-03T05:36:39.977Z,14.10
2022-08-03T05:39:07.550Z,10.88
2022-08-03T05:41:37.162Z,12.13
2022-08-03T05:44:05.537Z,8.77
2022-08-03T05:46:33.064Z,9.18
2022-08-03T05:49:01.843Z,11.32
2022-08-03T05:51:30.546Z,9.57
2022-08-03T05:53:58.133Z,9.93
2022-08-03T05:56:25.797Z,9.17
2022-08-03T05:58:54.923Z,10.38
2022-08-03T06:01:22.945Z,9.25
2022-08-03T06:03:52.445Z,9.02
2022-08-03T06:06:20.015Z,7.88
2022-08-03T06:08:49.082Z,8.23
2022-08-03T06:11:16.950Z,9.68
2022-08-03T06:13:45.165Z,9.60
2022-08-03T06:16:12.808Z,8.98
2022-08-03T06:18:41.146Z,10.93
2022-08-03T06:21:15.399Z,11.53
2022-08-03T06:23:54.446Z,10.35
2022-08-03T06:26:28.096Z,9.45
2022-08-03T06:28:57.562Z,8.07
2022-08-03T06:31:33.289Z,10.20
2022-08-03T06:34:32.155Z,12.43
2022-08-03T06:36:53.074Z,14.10
2022-08-03T06:39:23.619Z,9.38
2022-08-03T06:41:52.653Z,12.50
2022-08-03T06:44:20.716Z,8.95
2022-08-03T06:46:48.297Z,9.47
2022-08-03T06:49:15.862Z,11.75
2022-08-03T06:52:06.154Z,9.18
2022-08-03T06:54:33.329Z,8.90
2022-08-03T06:57:01.569Z,8.75
2022-08-03T07:00:10.593Z,10.13
2022-08-03T07:02:19.765Z,8.82
2022-08-03T07:04:49.373Z,10.68
2022-08-03T07:07:17.759Z,12.95
2022-08-03T07:09:57.182Z,10.18
2022-08-03T07:12:29.581Z,8.83
2022-08-03T07:15:02.893Z,9.68
2022-08-03T07:17:34.988Z,10.30
2022-08-03T07:20:05.702Z,9.65
2022-08-03T07:22:33.805Z,8.02
2022-08-03T07:25:01.441Z,10.67
2022-08-03T07:27:31.300Z,8.73
2022-08-03T07:30:00.098Z,8.82
2022-08-03T07:32:31.762Z,12.23
2022-08-03T07:35:01.126Z,12.20
2022-08-03T07:37:31.219Z,11.03
2022-08-03T07:39:59.805Z,9.18
2022-08-03T07:42:29.014Z,12.68
2022-08-03T07:44:57.504Z,9.05
2022-08-03T07:47:35.379Z,11.00
2022-08-03T07:50:04.588Z,9.97
2022-08-03T07:52:50.478Z,7.18
2022-08-03T07:55:24.634Z,9.07
2022-08-03T07:58:06.512Z,9.85
2022-08-03T08:00:34.618Z,14.05
2022-08-03T08:03:02.976Z,13.70
2022-08-03T08:05:30.626Z,14.98
2022-08-03T08:07:58.168Z,10.82
2022-08-03T08:10:26.104Z,18.38
2022-08-03T08:12:54.121Z,14.80
2022-08-03T08:15:21.960Z,11.10
2022-08-03T08:17:52.379Z,11.10
2022-08-03T08:20:27.818Z,9.73
2022-08-03T08:22:58.358Z,8.88
2022-08-03T08:25:31.468Z,11.13
2022-08-03T08:28:29.132Z,10.47
2022-08-03T08:30:52.360Z,9.15
2022-08-03T08:33:23.353Z,10.35
2022-08-03T08:35:53.852Z,8.50
2022-08-03T08:38:22.456Z,16.17
2022-08-03T08:40:51.127Z,8.43
2022-08-03T08:43:18.679Z,7.88
2022-08-03T08:45:47.661Z,8.93
2022-08-03T08:48:18.657Z,7.97
2022-08-03T08:50:47.010Z,12.07
2022-08-03T08:53:17.402Z,9.13
2022-08-03T08:55:59.131Z,9.25
2022-08-03T08:58:37.347Z,7.65
2022-08-03T09:01:06.783Z,8.77
2022-08-03T09:03:34.889Z,9.07
2022-08-03T09:06:02.861Z,8.50
2022-08-03T09:08:32.304Z,7.00
2022-08-03T09:11:00.642Z,6.47
2022-08-03T09:13:29.438Z,9.15
2022-08-03T09:16:16.481Z,9.23
2022-08-03T09:18:49.426Z,12.17
2022-08-03T09:21:31.769Z,14.50
2022-08-03T09:24:04.421Z,12.85
2022-08-03T09:26:37.056Z,14.13
2022-08-03T09:29:13.191Z,9.65
2022-08-03T09:31:44.861Z,11.03
2022-08-03T09:34:15.532Z,8.23
2022-08-03T09:36:51.084Z,11.15
2022-08-03T09:39:42.105Z,8.15
2022-08-03T09:42:18.348Z,10.65
2022-08-03T09:44:50.700Z,7.43
2022-08-03T09:47:30.518Z,9.50
2022-08-03T09:50:02.456Z,13.95
2022-08-03T09:52:38.944Z,21.40
2022-08-03T09:56:32.551Z,26.67
2022-08-03T09:58:09.680Z,20.57
2022-08-03T10:00:56.407Z,17.80
2022-08-03T10:03:25.430Z,15.15
2022-08-03T10:05:58.993Z,16.02
2022-08-03T10:08:27.526Z,11.98
2022-08-03T10:10:55.303Z,10.57
2022-08-03T10:13:23.851Z,9.32
2022-08-03T10:16:22.082Z,9.52
2022-08-03T10:18:39.307Z,9.10
2022-08-03T10:21:10.866Z,8.52
2022-08-03T10:23:39.193Z,7.20
2022-08-03T10:26:08.414Z,11.57
2022-08-03T10:28:44.944Z,7.75
2022-08-03T10:31:14.621Z,10.40
2022-08-03T10:33:51.966Z,9.20
2022-08-03T10:36:28.153Z,9.47
2022-08-03T10:38:57.390Z,8.32
2022-08-03T10:41:31.723Z,7.50
2022-08-03T10:44:05.851Z,9.82
2022-08-03T10:46:35.798Z,9.20
2022-08-03T10:49:04.301Z,8.37
2022-08-03T10:51:32.659Z,8.88
2022-08-03T10:54:01.757Z,9.13
2022-08-03T10:56:50.879Z,12.82
2022-08-03T11:00:02.245Z,8.80
2022-08-03T11:03:03.872Z,6.23
2022-08-03T11:05:59.038Z,5.70
2022-08-03T11:08:28.372Z,7.10
2022-08-03T11:11:16.118Z,7.38
2022-08-03T11:14:04.855Z,6.53
2022-08-03T11:16:38.191Z,6.57
2022-08-03T11:19:08.856Z,5.57
2022-08-03T11:21:51.626Z,6.03
2022-08-03T11:24:37.552Z,8.10
2022-08-03T11:27:30.927Z,5.10
2022-08-03T11:30:10.477Z,5.47
2022-08-03T11:32:38.322Z,5.65
2022-08-03T11:35:26.204Z,5.93
2022-08-03T11:38:04.817Z,8.10
2022-08-03T11:40:51.003Z,8.00
2022-08-03T11:43:31.451Z,6.40
2022-08-03T11:46:07.392Z,6.22
2022-08-03T11:48:46.697Z,8.00
2022-08-03T11:51:29.583Z,10.30
2022-08-03T11:54:06.578Z,6.47
2022-08-03T11:56:48.567Z,6.43
2022-08-03T11:59:22.073Z,8.02
2022-08-03T12:01:53.848Z,7.20
2022-08-03T12:04:21.798Z,6.15
2022-08-03T12:07:07.164Z,6.38
2022-08-03T12:09:36.770Z,10.27
2022-08-03T12:12:04.716Z,8.93
2022-08-03T12:14:50.375Z,7.18
2022-08-03T12:17:22.157Z,9.13
2022-08-03T12:19:52.433Z,14.05
2022-08-03T12:22:35.641Z,12.33
2022-08-03T12:25:07.459Z,12.25
2022-08-03T12:27:35.923Z,12.55
2022-08-03T12:30:05.420Z,10.20
2022-08-03T12:32:33.221Z,11.70
2022-08-03T12:35:06.177Z,9.47
2022-08-03T12:37:34.290Z,9.40
2022-08-03T12:40:09.977Z,8.85
2022-08-03T12:42:40.182Z,8.85
2022-08-03T12:45:22.446Z,18.00
2022-08-03T12:47:58.591Z,10.20
2022-08-03T12:50:34.853Z,7.38
2022-08-03T12:53:05.621Z,8.57
2022-08-03T12:55:57.552Z,9.98
2022-08-03T12:58:34.374Z,7.75
2022-08-03T13:01:10.142Z,8.43
2022-08-03T13:03:49.687Z,9.55
2022-08-03T13:06:25.799Z,8.45
2022-08-03T13:09:07.436Z,7.78
2022-08-03T13:11:55.507Z,10.93
2022-08-03T13:14:23.939Z,7.13
2022-08-03T13:16:51.920Z,7.22
2022-08-03T13:19:19.539Z,8.48
2022-08-03T13:22:01.690Z,8.63
2022-08-03T13:24:33.636Z,7.38
2022-08-03T13:27:22.052Z,8.73
2022-08-03T13:29:50.909Z,7.97
2022-08-03T13:32:18.489Z,8.57
2022-08-03T13:34:46.255Z,7.35
2022-08-03T13:37:14.775Z,7.15
2022-08-03T13:40:00.336Z,8.73
2022-08-03T13:42:35.141Z,6.93
2022-08-03T13:45:04.206Z,11.13
2022-08-03T13:47:32.454Z,7.28
2022-08-03T13:50:02.709Z,9.10
2022-08-03T13:52:36.156Z,7.93
2022-08-03T13:55:06.176Z,7.38
2022-08-03T13:58:02.349Z,7.93
2022-08-03T14:00:28.631Z,7.30
2022-08-03T14:03:12.794Z,8.90
2022-08-03T14:05:42.142Z,7.23
2022-08-03T14:08:11.102Z,8.75
2022-08-03T14:10:41.909Z,7.80
2022-08-03T14:13:11.186Z,9.10
2022-08-03T14:15:39.152Z,8.35
2022-08-03T14:18:15.251Z,7.90
2022-08-03T14:20:50.099Z,7.32
2022-08-03T14:23:22.042Z,6.32
2022-08-03T14:25:52.579Z,9.68
2022-08-03T14:28:23.818Z,8.57
2022-08-03T14:30:58.732Z,7.53
2022-08-03T14:33:28.572Z,7.40
2022-08-03T14:35:56.455Z,8.63
2022-08-03T14:38:25.107Z,6.28
2022-08-03T14:40:53.491Z,7.78
2022-08-03T14:43:22.921Z,9.03
2022-08-03T14:45:53.762Z,12.27
2022-08-03T14:50:31.051Z,10.18
2022-08-03T14:51:10.493Z,6.85
2022-08-03T14:53:38.143Z,8.73
2022-08-03T14:56:10.103Z,7.87
2022-08-03T14:58:38.509Z,10.00
2022-08-03T15:02:04.648Z,10.73
2022-08-03T15:03:55.268Z,10.40
2022-08-03T15:06:22.789Z,11.25
2022-08-03T15:09:13.623Z,12.67
2022-08-03T15:11:41.525Z,12.68
2022-08-03T15:14:09.725Z,11.55
2022-08-03T15:16:38.485Z,18.27
2022-08-03T15:20:01.173Z,16.23
2022-08-03T15:21:53.894Z,11.50
2022-08-03T15:24:21.477Z,10.18
2022-08-03T15:26:48.964Z,10.23
2022-08-03T15:30:09.519Z,9.35
2022-08-03T15:32:09.032Z,10.07
2022-08-03T15:34:37.230Z,9.70
2022-08-03T15:37:15.179Z,11.07
2022-08-03T15:39:59.176Z,7.82
2022-08-03T15:42:29.702Z,9.35
2022-08-03T15:44:57.344Z,9.63
2022-08-03T15:47:24.950Z,13.03
2022-08-03T15:49:52.660Z,9.00
2022-08-03T15:52:20.359Z,9.77
2022-08-03T15:54:47.939Z,8.60
2022-08-03T15:57:15.479Z,11.80
2022-08-03T15:59:43.018Z,8.73
2022-08-03T16:02:10.781Z,7.18
2022-08-03T16:04:38.324Z,8.70
2022-08-03T16:07:05.963Z,9.68
2022-08-03T16:09:42.055Z,11.82
2022-08-03T16:12:16.258Z,11.43
2022-08-03T16:14:54.425Z,10.85
2022-08-03T16:17:22.881Z,10.57
2022-08-03T16:19:54.708Z,10.60
2022-08-03T16:22:23.991Z,12.98
2022-08-03T16:24:53.454Z,10.47
2022-08-03T16:27:37.342Z,11.02
2022-08-03T16:30:12.326Z,9.75
2022-08-03T16:32:40.168Z,12.07
2022-08-03T16:35:08.241Z,9.68
2022-08-03T16:37:38.739Z,10.83
2022-08-03T16:40:19.276Z,8.55
2022-08-03T16:42:47.692Z,10.15
2022-08-03T16:45:15.353Z,9.45
2022-08-03T16:47:42.939Z,7.35
2022-08-03T16:50:17.182Z,7.33
2022-08-03T16:52:48.483Z,8.52
2022-08-03T16:55:42.938Z,10.20
2022-08-03T16:58:06.025Z,8.70
2022-08-03T17:00:41.574Z,12.40
2022-08-03T17:03:12.538Z,13.57
2022-08-03T17:05:47.939Z,13.02
2022-08-03T17:08:26.132Z,18.30
2022-08-03T17:10:56.224Z,16.35
2022-08-03T17:13:38.864Z,13.05
2022-08-03T17:16:08.647Z,13.70
2022-08-03T17:18:42.273Z,13.23
2022-08-03T17:21:16.416Z,14.82
2022-08-03T17:24:20.794Z,16.67
2022-08-03T17:26:51.635Z,15.40
2022-08-03T17:29:25.079Z,13.20
2022-08-03T17:31:53.380Z,13.95
2022-08-03T17:34:26.312Z,12.52
2022-08-03T17:37:17.747Z,10.70
2022-08-03T17:39:59.831Z,10.18
2022-08-03T17:45:17.082Z,12.88
2022-08-03T17:47:57.466Z,17.42
2022-08-03T17:50:41.743Z,11.75
2022-08-03T17:53:24.041Z,11.15
2022-08-03T17:56:38.862Z,10.93
2022-08-03T17:59:12.049Z,13.77
2022-08-03T18:02:22.358Z,10.15
2022-08-03T18:05:16.603Z,13.20
2022-08-03T18:08:01.614Z,9.55
2022-08-03T18:10:35.135Z,10.27
2022-08-03T18:13:11.367Z,11.48
2022-08-03T18:15:47.295Z,9.32
2022-08-03T18:18:32.437Z,8.65
2022-08-03T18:21:06.852Z,11.30
2022-08-03T18:23:40.047Z,10.70
2022-08-03T18:26:12.011Z,15.43
2022-08-03T18:28:41.101Z,15.77
2022-08-03T18:31:13.026Z,11.55
2022-08-03T18:34:17.628Z,10.25
2022-08-03T18:36:49.930Z,7.20
2022-08-03T18:39:19.637Z,7.10
2022-08-03T18:41:47.439Z,7.38
2022-08-03T18:44:46.540Z,8.43
2022-08-03T18:47:23.550Z,8.82
2022-08-03T18:49:55.630Z,8.33
2022-08-03T18:52:37.352Z,9.40
2022-08-03T18:55:21.056Z,6.90
2022-08-03T18:58:29.789Z,5.80
2022-08-03T19:01:15.417Z,6.38
2022-08-03T19:04:24.243Z,7.97
2022-08-03T19:06:57.726Z,7.97
2022-08-03T19:09:34.689Z,6.53
2022-08-03T19:15:00.520Z,10.60
2022-08-03T19:17:36.216Z,7.67
2022-08-03T19:20:09.316Z,7.38
2022-08-03T19:22:39.932Z,5.55
2022-08-03T19:25:13.680Z,5.88
2022-08-03T19:27:46.002Z,6.25
2022-08-03T19:30:38.895Z,7.37
2022-08-03T19:33:14.559Z,13.45
2022-08-03T19:35:52.109Z,13.02
2022-08-03T19:38:29.230Z,20.33
2022-08-03T19:41:04.488Z,18.70
2022-08-03T19:43:52.875Z,20.67
2022-08-03T19:46:30.217Z,18.92
2022-08-03T19:49:14.736Z,22.55
2022-08-03T19:52:01.225Z,22.05
2022-08-03T19:54:53.118Z,22.20
2022-08-03T19:57:25.184Z,12.43
2022-08-03T19:59:54.984Z,7.20
2022-08-03T20:02:26.873Z,6.45
2022-08-03T20:05:00.469Z,6.47
2022-08-03T20:07:31.170Z,6.30
2022-08-03T20:12:49.128Z,7.00
2022-08-03T20:18:04.611Z,6.43
2022-08-03T20:20:37.298Z,5.63
2022-08-03T20:23:19.603Z,5.43
2022-08-03T20:25:58.578Z,5.65
2022-08-03T20:28:55.389Z,6.25
2022-08-03T20:31:32.216Z,5.82
2022-08-03T20:34:04.531Z,6.80
2022-08-03T20:36:32.003Z,8.40
2022-08-03T20:39:00.019Z,9.00
2022-08-03T20:41:27.579Z,9.27
2022-08-03T20:43:55.105Z,9.85
2022-08-03T20:46:34.302Z,10.70
2022-08-03T20:49:09.459Z,8.27
2022-08-03T20:51:50.524Z,9.68
2022-08-03T20:54:30.840Z,8.10
2022-08-03T20:57:04.483Z,9.05
2022-08-03T20:59:50.271Z,9.63
2022-08-03T21:02:29.619Z,7.77
2022-08-03T21:05:08.566Z,8.77
2022-08-03T21:08:05.002Z,8.65
2022-08-03T21:10:37.865Z,12.43
2022-08-03T21:13:04.327Z,11.03
2022-08-03T21:13:10.126Z,7.75
2022-08-03T21:13:10.392Z,6.90
2022-08-03T21:13:11.155Z,6.68
2022-08-03T21:13:18.943Z,8.65
2022-08-03T21:16:07.145Z,11.40
2022-08-03T21:18:46.211Z,8.50
2022-08-03T21:21:16.419Z,10.35
2022-08-03T21:23:48.576Z,10.82
2022-08-03T21:26:20.029Z,10.32
2022-08-03T21:28:52.056Z,9.47
2022-08-03T21:31:25.213Z,10.82
2022-08-03T21:33:56.785Z,10.85
2022-08-03T21:36:26.908Z,9.77
2022-08-03T21:38:57.489Z,13.00
2022-08-03T21:41:27.866Z,9.17
2022-08-03T21:43:55.731Z,11.55
2022-08-03T21:46:24.131Z,11.65
2022-08-03T21:50:06.893Z,10.35
2022-08-03T21:51:49.754Z,10.38
2022-08-03T21:54:20.676Z,9.27
2022-08-03T21:56:48.807Z,10.82
2022-08-03T21:59:20.821Z,10.60
2022-08-03T22:01:51.541Z,12.88
2022-08-03T22:04:50.101Z,14.43
2022-08-03T22:07:10.980Z,15.60
2022-08-03T22:09:38.518Z,14.65
2022-08-03T22:12:06.735Z,17.13
2022-08-03T22:14:34.213Z,11.10
2022-08-03T22:17:06.190Z,9.20
2022-08-03T22:19:34.310Z,8.17
2022-08-03T22:22:06.302Z,7.50
2022-08-03T22:24:36.547Z,7.43
2022-08-03T22:27:22.711Z,6.55
2022-08-03T22:29:52.013Z,7.20
2022-08-03T22:32:20.482Z,6.33
2022-08-03T22:34:51.857Z,7.97
2022-08-03T22:37:22.181Z,6.90
2022-08-03T22:39:50.243Z,8.05
2022-08-03T22:42:19.795Z,6.75
2022-08-03T22:44:50.204Z,7.10
2022-08-03T22:47:22.545Z,6.43
2022-08-03T22:50:32.125Z,6.78
2022-08-03T22:52:42.670Z,8.02
2022-08-03T22:55:18.835Z,7.53
2022-08-03T22:57:55.614Z,5.77
2022-08-03T23:00:25.134Z,8.32
2022-08-03T23:02:54.370Z,5.63
2022-08-03T23:06:01.186Z,6.50
2022-08-03T23:08:15.440Z,7.50
2022-08-03T23:10:47.216Z,6.77
2022-08-03T23:13:17.484Z,5.40
2022-08-03T23:16:02.834Z,8.45
2022-08-03T23:18:37.272Z,6.57
2022-08-03T23:21:11.149Z,7.25
2022-08-03T23:23:44.392Z,7.53
2022-08-03T23:26:14.075Z,7.30
2022-08-03T23:28:45.491Z,8.07
2022-08-03T23:31:15.153Z,9.40
2022-08-03T23:33:45.182Z,8.88
2022-08-03T23:36:30.888Z,10.40
2022-08-03T23:39:02.657Z,8.82
2022-08-03T23:41:32.691Z,7.53
2022-08-03T23:44:03.664Z,6.90
2022-08-03T23:46:33.384Z,7.97
2022-08-03T23:49:01.093Z,6.90
2022-08-03T23:51:34.707Z,8.77
2022-08-03T23:54:14.490Z,8.80
2022-08-03T23:56:54.660Z,8.15
2022-08-03T23:59:32.430Z,7.72
